createdAt,value
2024-01-20T00:01:29.369Z,88.67
2024-01-20T00:03:57.800Z,88.64
2024-01-20T00:06:26.251Z,88.81
2024-01-20T00:08:56.532Z,88.91
2024-01-20T00:11:24.936Z,89.39
2024-01-20T00:13:53.377Z,88.88
2024-01-20T00:16:23.177Z,87.88
2024-01-20T00:18:51.689Z,86.34
2024-01-20T00:21:20.058Z,86.57
2024-01-20T00:23:48.745Z,87.49
2024-01-20T00:26:17.470Z,89.00
2024-01-20T00:28:46.426Z,88.55
2024-01-20T00:31:14.854Z,88.00
2024-01-20T00:33:45.239Z,87.81
2024-01-20T00:36:13.749Z,86.77
2024-01-20T00:38:43.653Z,86.80
2024-01-20T00:41:12.593Z,86.15
2024-01-20T00:43:41.215Z,87.03
2024-01-20T00:46:10.586Z,86.92
2024-01-20T00:48:38.811Z,87.18
2024-01-20T00:51:08.446Z,86.75
2024-01-20T00:53:36.669Z,87.32
2024-01-20T00:56:05.534Z,87.08
2024-01-20T00:58:35.519Z,87.58
2024-01-20T01:01:03.815Z,87.49
2024-01-20T01:03:32.439Z,87.20
2024-01-20T01:06:00.927Z,86.11
2024-01-20T01:08:30.908Z,85.86
2024-01-20T01:10:59.254Z,85.10
2024-01-20T01:13:27.558Z,87.12
2024-01-20T01:15:58.080Z,87.49
2024-01-20T01:18:26.360Z,87.29
2024-01-20T01:20:55.113Z,87.77
2024-01-20T01:23:23.382Z,88.31
2024-01-20T01:25:55.259Z,87.15
2024-01-20T01:28:23.516Z,86.78
2024-01-20T01:30:51.714Z,87.28
2024-01-20T01:33:21.538Z,85.08
2024-01-20T01:35:49.772Z,86.06
2024-01-20T01:38:18.101Z,86.48
2024-01-20T01:40:46.503Z,84.52
2024-01-20T01:43:16.705Z,83.82
2024-01-20T01:45:45.018Z,83.51
2024-01-20T01:48:13.365Z,82.90
2024-01-20T01:50:42.421Z,82.19
2024-01-20T01:53:13.153Z,82.49
2024-01-20T01:55:44.734Z,80.81
2024-01-20T01:58:12.993Z,80.18
2024-01-20T02:00:43.281Z,81.11
2024-01-20T02:03:11.997Z,81.10
2024-01-20T02:05:40.599Z,81.96
2024-01-20T02:08:11.753Z,81.58
2024-01-20T02:10:42.054Z,81.42
2024-01-20T02:13:11.920Z,82.06
2024-01-20T02:15:42.733Z,81.82
2024-01-20T02:18:11.291Z,83.48
2024-01-20T02:20:39.910Z,83.13
2024-01-20T02:23:09.549Z,81.89
2024-01-20T02:25:37.707Z,82.12
2024-01-20T02:28:06.560Z,83.83
2024-01-20T02:30:35.766Z,83.20
2024-01-20T02:33:04.465Z,82.48
2024-01-20T02:35:33.083Z,80.98
2024-01-20T02:38:02.449Z,80.18
2024-01-20T02:40:32.375Z,80.20
2024-01-20T02:43:00.901Z,80.58
2024-01-20T02:45:29.401Z,80.30
2024-01-20T02:48:02.279Z,79.19
2024-01-20T02:50:31.269Z,78.33
2024-01-20T02:52:59.767Z,77.69
2024-01-20T02:55:28.283Z,77.58
2024-01-20T02:57:57.884Z,78.35
2024-01-20T03:00:26.639Z,77.98
2024-01-20T03:03:04.222Z,77.94
2024-01-20T03:05:32.590Z,77.69
2024-01-20T03:08:00.819Z,77.48
2024-01-20T03:10:29.126Z,77.00
2024-01-20T03:12:58.833Z,76.56
2024-01-20T03:15:27.256Z,77.78
2024-01-20T03:17:55.574Z,77.62
2024-01-20T03:20:23.786Z,77.08
2024-01-20T03:22:52.051Z,77.34
2024-01-20T03:25:20.262Z,78.44
2024-01-20T03:27:48.447Z,78.36
2024-01-20T03:30:19.235Z,77.94
2024-01-20T03:32:47.418Z,77.44
2024-01-20T03:35:16.332Z,77.26
2024-01-20T03:37:44.645Z,77.91
2024-01-20T03:40:13.122Z,77.63
2024-01-20T03:42:41.371Z,76.34
2024-01-20T03:45:10.341Z,77.64
2024-01-20T03:47:42.008Z,77.09
2024-01-20T03:50:11.621Z,77.11
2024-01-20T03:52:39.916Z,77.70
2024-01-20T03:55:09.199Z,78.22
2024-01-20T03:57:41.954Z,77.23
2024-01-20T04:00:11.880Z,77.37
2024-01-20T04:02:41.488Z,76.56
2024-01-20T04:05:10.410Z,76.78
2024-01-20T04:07:41.827Z,77.69
2024-01-20T04:10:11.202Z,77.47
2024-01-20T04:12:41.252Z,77.53
2024-01-20T04:15:10.769Z,77.74
2024-01-20T04:17:43.671Z,76.40
2024-01-20T04:20:12.971Z,76.56
2024-01-20T04:22:41.153Z,76.49
2024-01-20T04:25:10.270Z,75.77
2024-01-20T04:27:41.482Z,76.52
2024-01-20T04:30:12.121Z,76.66
2024-01-20T04:32:40.496Z,76.88
2024-01-20T04:35:10.932Z,77.11
2024-01-20T04:37:40.302Z,75.26
2024-01-20T04:40:09.882Z,75.73
2024-01-20T04:42:38.113Z,75.75
2024-01-20T04:45:08.248Z,76.89
2024-01-20T04:47:37.072Z,76.91
2024-01-20T04:50:06.107Z,76.01
2024-01-20T04:52:36.498Z,75.79
2024-01-20T04:55:05.186Z,76.26
2024-01-20T04:57:33.491Z,76.32
2024-01-20T05:00:01.794Z,76.74
2024-01-20T05:02:30.031Z,75.35
2024-01-20T05:04:58.221Z,75.96
2024-01-20T05:07:26.620Z,76.30
2024-01-20T05:09:59.702Z,76.35
2024-01-20T05:12:29.320Z,76.82
2024-01-20T05:14:59.934Z,76.05
2024-01-20T05:17:28.259Z,76.26
2024-01-20T05:19:57.006Z,76.77
2024-01-20T05:22:25.331Z,76.88
2024-01-20T05:24:54.970Z,77.09
2024-01-20T05:27:23.220Z,76.63
2024-01-20T05:29:51.794Z,76.70
2024-01-20T05:32:20.094Z,76.43
2024-01-20T05:34:48.438Z,76.48
2024-01-20T05:37:17.636Z,77.22
2024-01-20T05:39:45.863Z,75.76
2024-01-20T05:42:16.494Z,76.46
2024-01-20T05:44:45.017Z,76.79
2024-01-20T05:47:13.217Z,76.44
2024-01-20T05:49:41.486Z,76.49
2024-01-20T05:52:09.792Z,76.80
2024-01-20T05:54:38.120Z,77.32
2024-01-20T05:57:06.882Z,77.49
2024-01-20T05:59:36.876Z,77.17
2024-01-20T06:02:05.499Z,76.85
2024-01-20T06:04:33.721Z,76.88
2024-01-20T06:07:05.410Z,75.86
2024-01-20T06:09:33.925Z,75.38
2024-01-20T06:12:02.238Z,77.64
2024-01-20T06:14:30.502Z,78.31
2024-01-20T06:17:00.040Z,78.37
2024-01-20T06:19:28.221Z,77.16
2024-01-20T06:22:00.557Z,77.34
2024-01-20T06:24:28.824Z,78.08
2024-01-20T06:27:01.746Z,77.58
2024-01-20T06:29:29.951Z,77.78
2024-01-20T06:32:02.437Z,78.27
2024-01-20T06:34:30.679Z,76.97
2024-01-20T06:37:02.385Z,76.83
2024-01-20T06:39:30.672Z,77.34
2024-01-20T06:42:02.033Z,78.40
2024-01-20T06:44:30.246Z,78.04
2024-01-20T06:47:00.434Z,79.54
2024-01-20T06:49:28.675Z,78.79
2024-01-20T06:51:57.786Z,77.78
2024-01-20T06:54:26.081Z,77.53
2024-01-20T06:56:56.457Z,77.60
2024-01-20T06:59:24.676Z,77.16
2024-01-20T07:01:53.005Z,76.02
2024-01-20T07:04:25.707Z,76.19
2024-01-20T07:06:53.976Z,75.97
2024-01-20T07:09:25.207Z,75.93
2024-01-20T07:11:56.486Z,75.89
2024-01-20T07:14:25.118Z,75.01
2024-01-20T07:16:53.520Z,75.55
2024-01-20T07:19:21.728Z,75.64
2024-01-20T07:21:51.492Z,75.69
2024-01-20T07:24:19.811Z,74.68
2024-01-20T07:26:48.088Z,74.20
2024-01-20T07:29:16.888Z,73.73
2024-01-20T07:31:45.166Z,74.94
2024-01-20T07:34:13.672Z,75.17
2024-01-20T07:36:41.977Z,74.33
2024-01-20T07:39:11.588Z,73.20
2024-01-20T07:41:39.885Z,73.20
2024-01-20T07:44:08.181Z,73.51
2024-01-20T07:46:36.765Z,72.78
2024-01-20T07:49:05.184Z,72.96
2024-01-20T07:51:33.486Z,72.43
2024-01-20T07:54:01.923Z,72.54
2024-01-20T07:56:31.471Z,71.76
2024-01-20T07:58:59.650Z,71.15
2024-01-20T08:01:27.923Z,71.08
2024-01-20T08:03:56.288Z,71.50
2024-01-20T08:06:24.604Z,72.05
2024-01-20T08:08:52.867Z,71.68
2024-01-20T08:11:23.131Z,71.08
2024-01-20T08:13:52.961Z,70.71
2024-01-20T08:16:22.341Z,70.82
2024-01-20T08:18:50.744Z,70.22
2024-01-20T08:21:22.598Z,70.12
2024-01-20T08:23:50.832Z,69.23
2024-01-20T08:26:19.006Z,68.88
2024-01-20T08:28:47.215Z,68.52
2024-01-20T08:31:17.626Z,67.21
2024-01-20T08:33:46.296Z,67.17
2024-01-20T08:36:14.738Z,67.51
2024-01-20T08:38:43.286Z,67.00
2024-01-20T08:41:12.263Z,66.96
2024-01-20T08:43:44.917Z,66.62
2024-01-20T08:46:13.858Z,66.42
2024-01-20T08:48:43.604Z,66.69
2024-01-20T08:51:12.020Z,66.69
2024-01-20T08:53:40.627Z,66.02
2024-01-20T08:56:09.806Z,65.32
2024-01-20T08:58:38.040Z,65.38
2024-01-20T09:01:07.708Z,65.37
2024-01-20T09:03:41.205Z,63.75
2024-01-20T09:06:14.299Z,62.84
2024-01-20T09:08:43.036Z,61.69
2024-01-20T09:11:11.256Z,62.01
2024-01-20T09:13:42.425Z,62.07
2024-01-20T09:16:11.445Z,62.62
2024-01-20T09:18:40.107Z,62.64
2024-01-20T09:21:13.845Z,62.04
2024-01-20T09:23:43.062Z,62.10
2024-01-20T09:26:11.278Z,61.88
2024-01-20T09:28:39.510Z,61.41
2024-01-20T09:31:07.671Z,61.41
2024-01-20T09:33:36.594Z,60.92
2024-01-20T09:36:06.362Z,60.82
2024-01-20T09:38:36.051Z,60.76
2024-01-20T09:41:10.658Z,61.01
2024-01-20T09:43:40.753Z,60.47
2024-01-20T09:46:09.796Z,60.49
2024-01-20T09:48:38.558Z,59.80
2024-01-20T09:51:09.253Z,60.39
2024-01-20T09:53:41.810Z,60.09
2024-01-20T09:56:10.024Z,60.24
2024-01-20T09:58:40.183Z,59.50
2024-01-20T10:01:08.929Z,58.96
2024-01-20T10:03:41.817Z,58.68
2024-01-20T10:06:10.571Z,59.03
2024-01-20T10:08:40.273Z,59.01
2024-01-20T10:11:09.099Z,58.71
2024-01-20T10:13:37.750Z,58.74
2024-01-20T10:16:07.118Z,59.34
2024-01-20T10:18:38.590Z,59.70
2024-01-20T10:21:08.124Z,60.39
2024-01-20T10:23:42.085Z,60.55
2024-01-20T10:26:11.843Z,60.81
2024-01-20T10:28:40.136Z,60.95
2024-01-20T10:31:09.559Z,60.93
2024-01-20T10:33:39.335Z,61.40
2024-01-20T10:36:11.454Z,61.88
2024-01-20T10:38:40.685Z,62.11
2024-01-20T10:41:15.581Z,60.68
2024-01-20T10:43:55.001Z,60.02
2024-01-20T10:46:28.629Z,60.90
2024-01-20T10:49:02.390Z,59.20
2024-01-20T10:51:33.121Z,59.81
2024-01-20T10:54:05.445Z,59.76
2024-01-20T10:56:38.221Z,59.22
2024-01-20T10:59:18.116Z,57.96
2024-01-20T11:01:47.548Z,57.85
2024-01-20T11:04:21.143Z,57.13
2024-01-20T11:06:49.652Z,55.74
2024-01-20T11:09:23.797Z,55.64
2024-01-20T11:12:02.795Z,55.96
2024-01-20T11:14:31.917Z,55.94
2024-01-20T11:17:10.270Z,56.03
2024-01-20T11:19:39.491Z,56.32
2024-01-20T11:22:27.121Z,56.54
2024-01-20T11:24:57.274Z,56.72
2024-01-20T11:27:27.006Z,56.54
2024-01-20T11:30:11.586Z,56.28
2024-01-20T11:32:40.719Z,55.99
2024-01-20T11:35:10.621Z,56.52
2024-01-20T11:37:45.008Z,56.72
2024-01-20T11:40:13.945Z,56.60
2024-01-20T11:42:43.782Z,56.38
2024-01-20T11:45:12.825Z,56.59
2024-01-20T11:47:43.306Z,57.12
2024-01-20T11:50:13.351Z,56.23
2024-01-20T11:52:43.300Z,56.13
2024-01-20T11:55:13.252Z,56.81
2024-01-20T11:57:42.871Z,57.36
2024-01-20T12:00:12.674Z,56.70
2024-01-20T12:02:48.181Z,57.03
2024-01-20T12:05:18.988Z,56.93
2024-01-20T12:07:48.190Z,56.92
2024-01-20T12:10:18.841Z,57.02
2024-01-20T12:12:48.458Z,57.48
2024-01-20T12:15:17.475Z,57.55
2024-01-20T12:17:45.888Z,57.36
2024-01-20T12:20:14.331Z,57.22
2024-01-20T12:22:42.969Z,57.19
2024-01-20T12:25:12.592Z,57.32
2024-01-20T12:27:43.477Z,57.76
2024-01-20T12:30:14.964Z,58.07
2024-01-20T12:32:43.382Z,58.28
2024-01-20T12:35:12.083Z,58.01
2024-01-20T12:37:43.331Z,58.25
2024-01-20T12:40:13.837Z,57.44
2024-01-20T12:42:42.260Z,57.53
2024-01-20T12:45:13.199Z,57.66
2024-01-20T12:47:43.359Z,58.09
2024-01-20T12:50:15.130Z,58.27
2024-01-20T12:52:44.013Z,57.82
2024-01-20T12:55:12.692Z,57.37
2024-01-20T12:57:41.630Z,56.66
2024-01-20T13:00:15.464Z,55.59
2024-01-20T13:02:43.677Z,55.02
2024-01-20T13:05:12.306Z,54.17
2024-01-20T13:07:42.935Z,54.09
2024-01-20T13:10:11.743Z,54.27
2024-01-20T13:12:42.901Z,55.02
2024-01-20T13:15:17.400Z,55.68
2024-01-20T13:17:45.749Z,56.16
2024-01-20T13:20:14.437Z,57.26
2024-01-20T13:22:43.512Z,57.90
2024-01-20T13:25:11.758Z,58.42
2024-01-20T13:27:40.213Z,59.11
2024-01-20T13:30:10.826Z,58.82
2024-01-20T13:32:41.045Z,59.65
2024-01-20T13:35:10.076Z,60.18
2024-01-20T13:37:38.954Z,59.97
2024-01-20T13:40:10.644Z,59.72
2024-01-20T13:42:41.424Z,60.40
2024-01-20T13:45:13.156Z,60.21
2024-01-20T13:47:44.916Z,61.16
2024-01-20T13:50:13.218Z,61.73
2024-01-20T13:52:42.117Z,62.34
2024-01-20T13:55:11.526Z,61.60
2024-01-20T13:57:40.729Z,61.67
2024-01-20T14:00:14.709Z,62.01
2024-01-20T14:02:45.382Z,62.85
2024-01-20T14:05:13.629Z,63.47
2024-01-20T14:07:43.193Z,63.13
2024-01-20T14:10:12.592Z,64.24
2024-01-20T14:12:40.956Z,64.20
2024-01-20T14:15:15.326Z,64.73
2024-01-20T14:17:44.981Z,64.85
2024-01-20T14:20:13.860Z,64.74
2024-01-20T14:22:43.710Z,65.16
2024-01-20T14:25:17.681Z,66.43
2024-01-20T14:27:46.046Z,66.52
2024-01-20T14:30:18.328Z,66.58
2024-01-20T14:32:48.025Z,66.58
2024-01-20T14:35:16.296Z,66.26
2024-01-20T14:37:44.700Z,66.59
2024-01-20T14:40:13.968Z,67.71
2024-01-20T14:42:43.905Z,67.21
2024-01-20T14:45:12.440Z,67.43
2024-01-20T14:47:40.725Z,67.25
2024-01-20T14:50:12.550Z,67.35
2024-01-20T14:52:40.777Z,67.92
2024-01-20T14:55:10.203Z,67.70
2024-01-20T14:57:38.569Z,68.28
2024-01-20T15:00:10.139Z,67.12
2024-01-20T15:02:39.255Z,68.85
2024-01-20T15:05:10.370Z,68.76
2024-01-20T15:07:38.582Z,69.51
2024-01-20T15:10:08.314Z,70.10
2024-01-20T15:12:36.823Z,70.62
2024-01-20T15:15:06.298Z,71.22
2024-01-20T15:17:34.677Z,71.43
2024-01-20T15:20:04.890Z,70.92
2024-01-20T15:22:34.665Z,71.57
2024-01-20T15:25:03.714Z,71.59
2024-01-20T15:27:31.952Z,70.91
2024-01-20T15:30:00.388Z,71.06
2024-01-20T15:32:28.933Z,70.69
2024-01-20T15:34:57.306Z,71.01
2024-01-20T15:37:25.576Z,71.01
2024-01-20T15:39:58.174Z,72.06
2024-01-20T15:42:26.458Z,73.11
2024-01-20T15:44:54.854Z,72.75
2024-01-20T15:47:23.183Z,72.90
2024-01-20T15:49:51.500Z,71.83
2024-01-20T15:52:19.824Z,72.25
2024-01-20T15:54:49.295Z,72.22
2024-01-20T15:57:18.979Z,73.01
2024-01-20T15:59:47.210Z,72.71
2024-01-20T16:02:15.608Z,72.39
2024-01-20T16:04:43.880Z,73.11
2024-01-20T16:07:16.283Z,73.65
2024-01-20T16:09:45.175Z,72.54
2024-01-20T16:12:13.656Z,73.39
2024-01-20T16:14:43.220Z,74.22
2024-01-20T16:17:11.421Z,73.84
2024-01-20T16:19:40.162Z,73.14
2024-01-20T16:22:08.723Z,73.20
2024-01-20T16:24:37.873Z,72.56
2024-01-20T16:27:06.702Z,72.41
2024-01-20T16:29:35.172Z,71.06
2024-01-20T16:32:06.679Z,71.62
2024-01-20T16:34:35.085Z,72.69
2024-01-20T16:37:03.383Z,74.44
2024-01-20T16:39:31.675Z,75.62
2024-01-20T16:41:59.958Z,74.85
2024-01-20T16:44:28.246Z,75.55
2024-01-20T16:46:56.881Z,73.50
2024-01-20T16:49:28.132Z,74.86
2024-01-20T16:51:57.691Z,74.89
2024-01-20T16:54:26.405Z,73.22
2024-01-20T16:56:54.792Z,71.94
2024-01-20T16:59:23.028Z,72.00
2024-01-20T17:01:51.790Z,73.15
2024-01-20T17:04:20.336Z,71.73
2024-01-20T17:06:50.133Z,71.66
2024-01-20T17:09:18.418Z,72.02
2024-01-20T17:11:46.991Z,71.29
2024-01-20T17:14:19.013Z,71.79
2024-01-20T17:16:49.627Z,71.71
2024-01-20T17:19:20.864Z,71.59
2024-01-20T17:21:50.739Z,73.23
2024-01-20T17:24:19.003Z,73.52
2024-01-20T17:26:47.234Z,74.05
2024-01-20T17:29:15.460Z,74.35
2024-01-20T17:31:43.604Z,73.31
2024-01-20T17:34:13.486Z,72.36
2024-01-20T17:36:41.836Z,72.90
2024-01-20T17:39:11.650Z,73.45
2024-01-20T17:41:41.392Z,72.04
2024-01-20T17:44:09.571Z,72.15
2024-01-20T17:46:38.391Z,73.50
2024-01-20T17:49:08.382Z,74.06
2024-01-20T17:51:38.027Z,74.04
2024-01-20T17:54:07.197Z,73.69
2024-01-20T17:56:36.921Z,72.69
2024-01-20T17:59:05.439Z,72.50
2024-01-20T18:01:34.574Z,70.80
2024-01-20T18:04:03.002Z,71.28
2024-01-20T18:06:31.530Z,73.11
2024-01-20T18:09:00.339Z,73.05
2024-01-20T18:11:28.679Z,72.59
2024-01-20T18:13:59.164Z,74.06
2024-01-20T18:16:27.467Z,75.43
2024-01-20T18:18:55.841Z,74.24
2024-01-20T18:21:24.139Z,75.06
2024-01-20T18:23:53.003Z,74.47
2024-01-20T18:26:21.196Z,72.11
2024-01-20T18:28:49.651Z,73.45
2024-01-20T18:31:19.244Z,74.07
2024-01-20T18:33:47.485Z,74.24
2024-01-20T18:36:15.758Z,76.05
2024-01-20T18:38:43.970Z,76.32
2024-01-20T18:41:12.194Z,75.94
2024-01-20T18:43:41.085Z,75.15
2024-01-20T18:46:09.383Z,75.17
2024-01-20T18:48:39.126Z,75.17
2024-01-20T18:51:09.317Z,73.65
2024-01-20T18:53:39.146Z,74.54
2024-01-20T18:56:08.369Z,74.87
2024-01-20T18:58:37.762Z,73.87
2024-01-20T19:01:06.627Z,73.20
2024-01-20T19:03:34.922Z,72.25
2024-01-20T19:06:04.709Z,73.85
2024-01-20T19:08:33.123Z,73.49
2024-01-20T19:11:01.307Z,73.62
2024-01-20T19:13:29.508Z,74.51
2024-01-20T19:15:57.744Z,74.84
2024-01-20T19:18:28.585Z,74.62
2024-01-20T19:20:56.877Z,74.29
2024-01-20T19:23:26.478Z,72.66
2024-01-20T19:25:54.698Z,73.17
2024-01-20T19:28:22.852Z,73.49
2024-01-20T19:30:51.167Z,74.50
2024-01-20T19:33:19.660Z,74.14
2024-01-20T19:35:48.030Z,73.73
2024-01-20T19:38:16.367Z,74.43
2024-01-20T19:40:46.328Z,75.80
2024-01-20T19:43:14.658Z,76.06
2024-01-20T19:45:42.926Z,76.21
2024-01-20T19:48:13.061Z,76.64
2024-01-20T19:50:41.257Z,76.37
2024-01-20T19:53:09.483Z,76.60
2024-01-20T19:55:41.994Z,77.91
2024-01-20T19:58:13.821Z,78.62
2024-01-20T20:00:42.717Z,78.20
2024-01-20T20:03:11.001Z,77.74
2024-01-20T20:05:40.654Z,76.34
2024-01-20T20:08:09.356Z,75.64
2024-01-20T20:10:37.569Z,76.23
2024-01-20T20:13:06.332Z,75.01
2024-01-20T20:15:36.234Z,74.75
2024-01-20T20:18:04.944Z,76.10
2024-01-20T20:20:33.279Z,75.67
2024-01-20T20:23:01.556Z,74.78
2024-01-20T20:25:29.872Z,75.29
2024-01-20T20:27:58.145Z,74.84
2024-01-20T20:30:28.415Z,74.62
2024-01-20T20:32:58.873Z,74.34
2024-01-20T20:35:27.266Z,73.01
2024-01-20T20:37:56.334Z,72.57
2024-01-20T20:40:24.597Z,73.87
2024-01-20T20:42:52.938Z,72.85
2024-01-20T20:45:22.231Z,73.05
2024-01-20T20:47:50.636Z,72.87
2024-01-20T20:50:20.245Z,72.97
2024-01-20T20:52:48.525Z,72.86
2024-01-20T20:55:16.736Z,73.66
2024-01-20T20:57:45.086Z,73.05
2024-01-20T21:00:16.689Z,72.41
2024-01-20T21:02:46.225Z,73.01
2024-01-20T21:05:17.131Z,73.83
2024-01-20T21:07:47.700Z,73.22
2024-01-20T21:10:18.485Z,73.38
2024-01-20T21:12:47.899Z,72.02
2024-01-20T21:15:17.139Z,71.10
2024-01-20T21:17:45.632Z,70.85
2024-01-20T21:20:14.552Z,69.99
2024-01-20T21:22:42.827Z,70.81
2024-01-20T21:25:12.469Z,71.36
2024-01-20T21:27:41.363Z,70.86
2024-01-20T21:30:10.869Z,71.36
2024-01-20T21:32:39.340Z,71.82
2024-01-20T21:35:08.451Z,72.38
2024-01-20T21:37:37.386Z,71.86
2024-01-20T21:40:09.660Z,70.73
2024-01-20T21:42:39.384Z,69.49
2024-01-20T21:45:10.011Z,69.46
2024-01-20T21:47:38.498Z,68.42
2024-01-20T21:50:09.015Z,67.63
2024-01-20T21:52:39.705Z,67.90
2024-01-20T21:55:09.849Z,68.13
2024-01-20T21:57:42.515Z,67.77
2024-01-20T22:00:12.020Z,67.71
2024-01-20T22:02:40.270Z,67.54
2024-01-20T22:05:09.703Z,67.42
2024-01-20T22:07:38.453Z,68.67
2024-01-20T22:10:08.347Z,68.16
2024-01-20T22:12:36.870Z,67.86
2024-01-20T22:15:08.167Z,67.10
2024-01-20T22:17:37.155Z,67.60
2024-01-20T22:20:06.234Z,68.64
2024-01-20T22:22:36.676Z,69.89
2024-01-20T22:25:05.141Z,69.75
2024-01-20T22:27:34.416Z,70.11
2024-01-20T22:30:02.950Z,69.13
2024-01-20T22:32:32.886Z,69.26
2024-01-20T22:35:01.537Z,70.19
2024-01-20T22:37:31.454Z,70.52
2024-01-20T22:40:00.241Z,69.96
2024-01-20T22:42:28.740Z,70.29
2024-01-20T22:44:56.925Z,70.23
2024-01-20T22:47:25.212Z,68.38
2024-01-20T22:49:54.863Z,69.13
2024-01-20T22:52:23.083Z,69.85
2024-01-20T22:54:51.355Z,69.52
2024-01-20T22:57:20.131Z,70.77
2024-01-20T22:59:48.825Z,70.90
2024-01-20T23:02:17.057Z,70.98
2024-01-20T23:04:45.360Z,70.59
2024-01-20T23:07:15.469Z,70.86
2024-01-20T23:09:44.134Z,72.01
2024-01-20T23:12:12.363Z,72.08
2024-01-20T23:14:40.550Z,70.17
2024-01-20T23:17:08.893Z,69.52
2024-01-20T23:19:37.095Z,69.59
2024-01-20T23:22:05.763Z,70.99
2024-01-20T23:24:35.464Z,71.90
2024-01-20T23:27:03.789Z,73.01
2024-01-20T23:29:32.310Z,71.02
2024-01-20T23:32:00.467Z,69.99
2024-01-20T23:34:28.953Z,70.27
2024-01-20T23:36:57.233Z,69.62
2024-01-20T23:39:25.483Z,69.46
2024-01-20T23:41:55.081Z,68.91
2024-01-20T23:44:23.358Z,69.44
2024-01-20T23:46:55.326Z,69.69
2024-01-20T23:49:23.640Z,70.47
2024-01-20T23:51:51.883Z,70.01
2024-01-20T23:54:20.150Z,70.26
2024-01-20T23:56:48.677Z,70.73
2024-01-20T23:59:18.297Z,69.94
